Time;durP1;ratioP1;P1;durP2;ratioP2;P2;SDS_P1;SDS_P2;PMS_P1;PMS_P2;Temp;Humidity;BMP_temperature;BMP_pressure;BME280_temperature;BME280_humidity;BME280_pressure;Samples;Min_cycle;Max_cycle;Signal;HPM_P1;HPM_P2
2024/01/10 00:01:15;;;;;;;15.63;14.93;;;0.00;99.90;;;;;;5132699;27;20220;-61
2024/01/10 00:03:41;;;;;;;16.85;16.05;;;0.10;99.90;;;;;;5130259;27;20226;-61
2024/01/10 00:06:08;;;;;;;16.60;15.80;;;0.10;99.90;;;;;;5128449;27;20570;-62
2024/01/10 00:08:35;;;;;;;15.15;14.55;;;0.10;99.90;;;;;;5123494;27;20683;-60
2024/01/10 00:11:03;;;;;;;14.65;13.98;;;0.10;99.90;;;;;;5117317;27;20216;-63
2024/01/10 00:13:30;;;;;;;15.75;15.05;;;0.10;99.90;;;;;;5119849;27;20222;-60
2024/01/10 00:15:58;;;;;;;15.70;15.00;;;0.10;99.90;;;;;;5117308;27;20278;-62
2024/01/10 00:18:25;;;;;;;16.17;15.48;;;0.00;99.90;;;;;;5113585;28;20210;-62
2024/01/10 00:20:53;;;;;;;15.95;15.25;;;0.00;99.90;;;;;;5119411;27;20220;-62
2024/01/10 00:23:20;;;;;;;16.45;15.75;;;0.10;99.90;;;;;;5116932;27;20234;-61
2024/01/10 00:25:47;;;;;;;16.08;15.43;;;0.00;99.90;;;;;;5116635;27;20289;-61
2024/01/10 00:28:16;;;;;;;16.25;15.55;;;-0.10;99.90;;;;;;5120684;27;20210;-63
2024/01/10 00:30:43;;;;;;;18.88;17.98;;;-0.10;99.90;;;;;;5117075;27;20237;-62
2024/01/10 00:33:11;;;;;;;16.63;15.93;;;-0.20;99.90;;;;;;5116397;27;21774;-61
2024/01/10 00:35:38;;;;;;;17.50;16.70;;;-0.20;99.90;;;;;;5117680;27;20709;-62
2024/01/10 00:38:04;;;;;;;17.23;16.48;;;-0.20;99.90;;;;;;5116107;28;20198;-62
2024/01/10 00:40:31;;;;;;;16.60;15.90;;;-0.10;99.90;;;;;;5116355;27;20673;-62
2024/01/10 00:42:58;;;;;;;16.63;15.93;;;0.00;99.90;;;;;;5122497;27;20221;-62
2024/01/10 00:45:26;;;;;;;19.63;18.70;;;0.00;99.90;;;;;;5123447;27;20535;-61
2024/01/10 00:47:53;;;;;;;20.27;19.38;;;-0.10;99.90;;;;;;5128920;27;20202;-62
2024/01/10 00:50:19;;;;;;;18.58;17.77;;;-0.20;99.90;;;;;;5125260;27;20575;-62
2024/01/10 00:52:47;;;;;;;19.08;18.27;;;-0.30;99.90;;;;;;5116723;27;20395;-61
2024/01/10 00:55:13;;;;;;;19.63;18.73;;;-0.30;99.90;;;;;;5113209;27;20194;-61
2024/01/10 00:57:40;;;;;;;19.42;18.52;;;-0.20;99.90;;;;;;5113996;27;20206;-61
2024/01/10 01:00:08;;;;;;;19.27;18.38;;;-0.10;99.90;;;;;;5116016;27;20575;-61
2024/01/10 01:02:39;;;;;;;20.13;19.23;;;-0.10;99.90;;;;;;5120193;27;20230;-62
2024/01/10 01:05:06;;;;;;;18.55;17.70;;;-0.10;99.90;;;;;;5118648;27;20208;-61
2024/01/10 01:07:33;;;;;;;18.05;17.25;;;-0.20;99.90;;;;;;5112979;27;20238;-62
2024/01/10 01:10:00;;;;;;;19.77;18.88;;;-0.20;99.90;;;;;;5113665;27;20585;-61
2024/01/10 01:12:27;;;;;;;19.70;18.80;;;-0.20;99.90;;;;;;5115566;27;20221;-62
2024/01/10 01:14:54;;;;;;;17.55;16.75;;;-0.20;99.90;;;;;;5118624;27;20202;-62
2024/01/10 01:17:20;;;;;;;19.03;18.13;;;-0.20;99.90;;;;;;5117550;27;20219;-62
2024/01/10 01:19:48;;;;;;;19.43;18.50;;;-0.10;99.90;;;;;;5122652;27;20297;-62
2024/01/10 01:22:15;;;;;;;20.73;19.77;;;-0.10;99.90;;;;;;5112148;27;20194;-61
2024/01/10 01:24:42;;;;;;;18.80;18.00;;;-0.20;99.90;;;;;;5112144;27;20709;-62
2024/01/10 01:27:09;;;;;;;19.20;18.30;;;-0.30;99.90;;;;;;5113586;27;20202;-61
2024/01/10 01:29:35;;;;;;;18.52;17.70;;;-0.30;99.90;;;;;;5116978;27;20285;-62
2024/01/10 01:32:02;;;;;;;19.17;18.27;;;-0.20;99.90;;;;;;5119301;27;20209;-61
2024/01/10 01:34:29;;;;;;;19.63;18.73;;;-0.20;99.90;;;;;;5119438;27;20202;-60
2024/01/10 01:36:57;;;;;;;19.27;18.38;;;-0.20;99.90;;;;;;5114558;27;20592;-61
2024/01/10 01:39:24;;;;;;;18.45;17.65;;;-0.30;99.90;;;;;;5115067;27;20227;-61
2024/01/10 01:41:50;;;;;;;19.00;18.10;;;-0.20;99.90;;;;;;5111706;27;20206;-61
2024/01/10 01:44:18;;;;;;;19.33;18.52;;;-0.20;99.90;;;;;;5118304;27;20321;-60
2024/01/10 01:46:46;;;;;;;18.90;18.10;;;-0.20;99.90;;;;;;5111977;28;20211;-61
2024/01/10 01:49:13;;;;;;;19.80;18.90;;;-0.20;99.90;;;;;;5116580;27;20205;-61
2024/01/10 01:51:41;;;;;;;18.75;17.95;;;-0.30;99.90;;;;;;5116995;27;20194;-62
2024/01/10 01:54:11;;;;;;;19.50;18.60;;;-0.30;99.90;;;;;;5114822;27;20747;-61
2024/01/10 01:56:39;;;;;;;20.03;19.13;;;-0.30;99.90;;;;;;5115936;27;20229;-61
2024/01/10 01:59:06;;;;;;;17.83;16.98;;;-0.30;99.90;;;;;;5115862;27;20202;-62
2024/01/10 02:01:33;;;;;;;18.15;17.33;;;-0.30;99.90;;;;;;5113720;27;20209;-62
2024/01/10 02:04:01;;;;;;;17.27;16.47;;;-0.40;99.90;;;;;;5105933;27;20222;-63
2024/01/10 02:06:29;;;;;;;17.55;16.70;;;-0.40;99.90;;;;;;5105546;28;20221;-61
2024/01/10 02:08:56;;;;;;;15.55;14.85;;;-0.40;99.90;;;;;;5116303;28;20571;-62
2024/01/10 02:11:25;;;;;;;16.75;15.98;;;-0.50;99.90;;;;;;5114063;28;20584;-61
2024/01/10 02:13:54;;;;;;;17.25;16.45;;;-0.40;99.90;;;;;;5104594;28;20684;-61
2024/01/10 02:16:22;;;;;;;16.90;16.10;;;-0.40;99.90;;;;;;5109561;28;20321;-62
2024/01/10 02:18:49;;;;;;;17.17;16.33;;;-0.30;99.90;;;;;;5108081;28;20206;-61
2024/01/10 02:21:16;;;;;;;17.38;16.58;;;-0.30;99.90;;;;;;5109589;28;20232;-63
2024/01/10 02:23:43;;;;;;;18.08;17.20;;;-0.30;99.90;;;;;;5110397;28;20221;-62
2024/01/10 02:26:11;;;;;;;18.15;17.17;;;-0.30;99.90;;;;;;5111163;28;20202;-61
2024/01/10 02:28:38;;;;;;;17.88;17.13;;;-0.30;99.90;;;;;;5109102;28;20297;-62
2024/01/10 02:31:05;;;;;;;19.25;18.38;;;-0.30;99.90;;;;;;5112017;27;20206;-61
2024/01/10 02:33:32;;;;;;;19.02;18.13;;;-0.30;99.90;;;;;;5116597;28;20226;-62
2024/01/10 02:35:59;;;;;;;18.27;17.48;;;-0.30;99.90;;;;;;5115789;28;20217;-64
2024/01/10 02:38:26;;;;;;;20.13;18.92;;;-0.30;99.90;;;;;;5116473;28;20206;-61
2024/01/10 02:40:55;;;;;;;17.92;17.02;;;-0.40;99.90;;;;;;5123716;28;20210;-63
2024/01/10 02:43:23;;;;;;;17.35;16.45;;;-0.50;99.90;;;;;;5124738;28;20221;-62
2024/01/10 02:45:50;;;;;;;18.00;17.13;;;-0.50;99.90;;;;;;5123926;28;20206;-61
2024/01/10 02:48:16;;;;;;;17.85;16.95;;;-0.50;99.90;;;;;;5121078;28;20202;-61
2024/01/10 02:50:43;;;;;;;17.90;17.00;;;-0.50;99.90;;;;;;5123880;28;20236;-61
2024/01/10 02:53:10;;;;;;;15.98;15.20;;;-0.50;99.90;;;;;;5121848;28;20600;-63
2024/01/10 02:55:36;;;;;;;16.08;15.27;;;-0.50;99.90;;;;;;5110997;28;20210;-61
2024/01/10 02:58:03;;;;;;;15.73;14.90;;;-0.60;99.90;;;;;;5109809;28;20207;-64
2024/01/10 03:00:31;;;;;;;15.38;14.57;;;-0.70;99.90;;;;;;5108957;28;20198;-62
2024/01/10 03:02:58;;;;;;;15.55;14.75;;;-0.80;99.90;;;;;;5107996;28;20638;-61
2024/01/10 03:05:25;;;;;;;15.52;14.73;;;-0.80;99.90;;;;;;5110811;28;20201;-62
2024/01/10 03:07:52;;;;;;;14.85;14.05;;;-0.80;99.90;;;;;;5107751;28;20202;-61
2024/01/10 03:10:18;;;;;;;15.13;14.43;;;-0.80;99.90;;;;;;5111596;28;20213;-61
2024/01/10 03:12:45;;;;;;;15.57;14.75;;;-0.80;99.90;;;;;;5118655;28;20229;-60
2024/01/10 03:15:12;;;;;;;13.85;13.23;;;-0.80;99.90;;;;;;5119246;28;20201;-61
2024/01/10 03:17:40;;;;;;;15.30;14.60;;;-0.80;99.90;;;;;;5112348;28;20229;-60
2024/01/10 03:20:08;;;;;;;14.45;13.75;;;-0.80;99.90;;;;;;5107997;28;20206;-61
2024/01/10 03:22:36;;;;;;;14.57;13.88;;;-0.90;99.90;;;;;;5109565;27;20222;-63
2024/01/10 03:25:03;;;;;;;14.52;13.82;;;-1.00;99.90;;;;;;5111045;28;20228;-61
2024/01/10 03:27:29;;;;;;;15.07;14.25;;;-1.10;99.90;;;;;;5110367;28;20201;-62
2024/01/10 03:29:56;;;;;;;15.60;14.80;;;-1.10;99.90;;;;;;5111131;28;20202;-61
2024/01/10 03:32:23;;;;;;;14.30;13.60;;;-1.10;99.90;;;;;;5111552;28;20218;-62
2024/01/10 03:34:52;;;;;;;14.05;13.35;;;-1.00;99.90;;;;;;5112411;28;20210;-61
2024/01/10 03:37:19;;;;;;;15.00;14.20;;;-1.00;99.90;;;;;;5111810;28;20221;-64
2024/01/10 03:39:45;;;;;;;14.82;14.13;;;-1.00;99.90;;;;;;5111919;28;20205;-62
2024/01/10 03:42:12;;;;;;;14.45;13.75;;;-1.00;99.90;;;;;;5110861;28;20286;-60
2024/01/10 03:44:39;;;;;;;14.40;13.70;;;-1.00;99.90;;;;;;5110925;28;20594;-63
2024/01/10 03:47:06;;;;;;;14.45;13.75;;;-1.00;99.90;;;;;;5111472;28;20205;-62
2024/01/10 03:49:33;;;;;;;14.10;13.40;;;-1.00;99.90;;;;;;5111761;28;20202;-62
2024/01/10 03:52:01;;;;;;;14.45;13.75;;;-0.90;99.90;;;;;;5111055;28;20213;-61
2024/01/10 03:54:27;;;;;;;13.65;12.95;;;-0.90;99.90;;;;;;5108322;28;20208;-62
2024/01/10 03:56:54;;;;;;;13.25;12.65;;;-1.00;99.90;;;;;;5111426;28;20226;-63
2024/01/10 03:59:21;;;;;;;13.50;12.88;;;-1.00;99.90;;;;;;5110772;28;20194;-62
2024/01/10 04:01:47;;;;;;;14.05;13.35;;;-1.00;99.90;;;;;;5110688;28;20207;-62
2024/01/10 04:04:14;;;;;;;14.45;13.75;;;-1.00;99.90;;;;;;5108377;28;20223;-62
2024/01/10 04:06:41;;;;;;;13.95;13.35;;;-1.00;99.90;;;;;;5110027;28;20202;-60
2024/01/10 04:09:10;;;;;;;13.77;13.07;;;-1.00;99.90;;;;;;5110568;28;20202;-61
2024/01/10 04:11:37;;;;;;;13.48;12.80;;;-1.00;99.90;;;;;;5106743;28;20618;-62
2024/01/10 04:14:03;;;;;;;13.63;13.02;;;-1.00;99.90;;;;;;5116580;27;20229;-63
2024/01/10 04:16:30;;;;;;;15.23;14.43;;;-0.90;99.90;;;;;;5116330;28;20301;-62
2024/01/10 04:18:57;;;;;;;13.88;13.25;;;-0.90;99.90;;;;;;5116463;28;20209;-60
2024/01/10 04:21:24;;;;;;;14.32;13.63;;;-0.90;99.90;;;;;;5120706;28;20202;-62
2024/01/10 04:23:51;;;;;;;14.52;13.82;;;-1.00;99.90;;;;;;5134470;27;20236;-62
2024/01/10 04:26:19;;;;;;;15.52;14.63;;;-1.00;99.90;;;;;;5122871;27;20285;-62
2024/01/10 04:28:46;;;;;;;13.50;12.90;;;-0.90;99.90;;;;;;5116821;27;20210;-61
2024/01/10 04:31:13;;;;;;;14.02;13.32;;;-0.90;99.90;;;;;;5118092;27;20225;-61
2024/01/10 04:33:40;;;;;;;13.32;12.73;;;-0.80;99.90;;;;;;5124911;27;20715;-62
2024/01/10 04:36:07;;;;;;;14.45;13.68;;;-0.80;99.90;;;;;;5118560;27;20210;-61
2024/01/10 04:38:34;;;;;;;14.70;14.00;;;-0.80;99.90;;;;;;5112021;27;20712;-62
2024/01/10 04:41:00;;;;;;;13.45;12.85;;;-0.80;99.90;;;;;;5109161;27;20202;-61
2024/01/10 04:43:28;;;;;;;13.38;12.73;;;-0.80;99.90;;;;;;5126198;27;20226;-63
2024/01/10 04:45:55;;;;;;;13.55;12.90;;;-0.80;99.90;;;;;;5117683;27;20214;-62
2024/01/10 04:48:22;;;;;;;13.75;13.15;;;-0.90;99.90;;;;;;5119502;27;20206;-61
2024/01/10 04:50:49;;;;;;;13.43;12.82;;;-0.90;99.90;;;;;;5124253;27;20750;-61
2024/01/10 04:53:16;;;;;;;13.93;13.13;;;-1.00;99.90;;;;;;5120315;27;20312;-61
2024/01/10 04:55:42;;;;;;;13.40;12.80;;;-1.00;99.90;;;;;;5124276;27;20212;-62
2024/01/10 04:58:09;;;;;;;14.52;13.82;;;-1.00;99.90;;;;;;5122460;27;20222;-61
2024/01/10 05:00:37;;;;;;;14.25;13.55;;;-1.00;99.90;;;;;;5120901;27;20206;-63
2024/01/10 05:03:04;;;;;;;14.20;13.50;;;-1.00;99.90;;;;;;5115702;27;20220;-61
2024/01/10 05:05:31;;;;;;;13.65;13.02;;;-0.90;99.90;;;;;;5122607;27;20208;-63
2024/01/10 05:07:58;;;;;;;13.60;13.00;;;-0.80;99.90;;;;;;5111142;27;20229;-63
2024/01/10 05:10:24;;;;;;;12.95;12.35;;;-0.80;99.90;;;;;;5120292;27;20226;-62
2024/01/10 05:12:51;;;;;;;14.38;13.68;;;-0.60;99.90;;;;;;5111215;28;20226;-63
2024/01/10 05:15:18;;;;;;;15.35;14.57;;;-0.50;99.90;;;;;;5122946;27;20209;-61
2024/01/10 05:17:47;;;;;;;13.90;13.30;;;-0.60;99.90;;;;;;5129322;27;20218;-61
2024/01/10 05:20:14;;;;;;;14.18;13.55;;;-0.50;99.90;;;;;;5127846;27;20213;-61
2024/01/10 05:22:41;;;;;;;14.88;14.18;;;-0.50;99.90;;;;;;5132994;27;20225;-62
2024/01/10 05:25:08;;;;;;;14.98;14.27;;;-0.50;99.90;;;;;;5125971;27;20201;-62
2024/01/10 05:27:35;;;;;;;15.52;14.82;;;-0.60;99.90;;;;;;5114484;27;20212;-62
2024/01/10 05:30:02;;;;;;;16.33;15.60;;;-0.60;99.90;;;;;;5116471;27;20205;-62
2024/01/10 05:32:28;;;;;;;15.43;14.73;;;-0.70;99.90;;;;;;5111306;27;20428;-61
2024/01/10 05:34:55;;;;;;;15.00;14.32;;;-0.90;99.90;;;;;;5114262;27;20688;-61
2024/01/10 05:37:22;;;;;;;15.45;14.65;;;-0.90;99.90;;;;;;5113597;27;20735;-60
2024/01/10 05:39:49;;;;;;;15.13;14.43;;;-1.00;99.90;;;;;;5116534;27;20209;-62
2024/01/10 05:42:16;;;;;;;15.07;14.38;;;-1.00;99.90;;;;;;5112487;27;20255;-61
2024/01/10 05:44:43;;;;;;;13.60;13.00;;;-1.10;99.90;;;;;;5120553;27;20679;-62
2024/01/10 05:47:09;;;;;;;14.27;13.57;;;-1.20;99.90;;;;;;5113045;27;20198;-62
2024/01/10 05:49:36;;;;;;;13.82;13.18;;;-1.20;99.90;;;;;;5112170;27;20206;-61
2024/01/10 05:52:04;;;;;;;12.93;12.32;;;-1.10;99.90;;;;;;5116996;27;20194;-61
2024/01/10 05:54:31;;;;;;;13.32;12.73;;;-1.10;99.90;;;;;;5109980;28;20657;-61
2024/01/10 05:56:58;;;;;;;12.85;12.25;;;-1.10;99.90;;;;;;5113383;27;20226;-61
2024/01/10 05:59:25;;;;;;;14.00;13.30;;;-1.00;99.90;;;;;;5111306;27;20282;-61
2024/01/10 06:01:51;;;;;;;13.90;13.30;;;-1.00;99.90;;;;;;5106068;28;20260;-62
2024/01/10 06:04:18;;;;;;;15.02;14.25;;;-0.90;99.90;;;;;;5113532;27;20704;-61
2024/01/10 06:06:45;;;;;;;13.93;13.23;;;-0.90;99.90;;;;;;5117355;27;20220;-61
2024/01/10 06:09:19;;;;;;;14.35;13.65;;;-0.90;99.90;;;;;;5109562;28;20205;-61
2024/01/10 06:11:47;;;;;;;14.45;13.75;;;-0.90;99.90;;;;;;5113513;28;20205;-62
2024/01/10 06:14:14;;;;;;;14.00;13.40;;;-0.90;99.90;;;;;;5116607;27;20906;-62
2024/01/10 06:16:41;;;;;;;14.88;14.18;;;-0.90;99.90;;;;;;5118490;27;20201;-62
2024/01/10 06:19:10;;;;;;;14.48;13.77;;;-1.00;99.90;;;;;;5118309;27;20206;-61
2024/01/10 06:21:37;;;;;;;14.55;13.85;;;-1.00;99.90;;;;;;5122132;27;20202;-61
2024/01/10 06:24:04;;;;;;;14.88;14.15;;;-1.00;99.90;;;;;;5118270;27;20222;-61
2024/01/10 06:26:32;;;;;;;14.90;14.15;;;-1.00;99.90;;;;;;5118845;27;20619;-62
2024/01/10 06:28:58;;;;;;;14.43;13.73;;;-1.00;99.90;;;;;;5121199;27;20194;-62
2024/01/10 06:31:25;;;;;;;15.07;14.27;;;-1.10;99.90;;;;;;5118230;27;20212;-62
2024/01/10 06:33:52;;;;;;;13.63;13.02;;;-1.20;99.90;;;;;;5124431;28;20224;-62
2024/01/10 06:36:18;;;;;;;15.70;14.77;;;-1.10;99.90;;;;;;5128407;27;20206;-60
2024/01/10 06:38:45;;;;;;;14.13;13.43;;;-1.10;99.90;;;;;;5120673;28;20217;-62
2024/01/10 06:41:13;;;;;;;14.60;13.82;;;-1.10;99.90;;;;;;5119909;27;20211;-61
2024/01/10 06:43:41;;;;;;;15.63;14.77;;;-1.10;99.90;;;;;;5121007;27;20222;-66
2024/01/10 06:46:10;;;;;;;15.77;14.88;;;-1.00;99.90;;;;;;5112631;27;20210;-65
2024/01/10 06:48:36;;;;;;;15.10;14.38;;;-1.00;99.90;;;;;;5117053;27;20296;-65
2024/01/10 06:51:03;;;;;;;14.60;13.85;;;-1.00;99.90;;;;;;5109986;28;20201;-66
2024/01/10 06:53:30;;;;;;;14.82;14.10;;;-1.00;99.90;;;;;;5114291;27;20232;-66
2024/01/10 06:55:57;;;;;;;14.27;13.57;;;-0.90;99.90;;;;;;5113675;27;20201;-64
2024/01/10 06:58:23;;;;;;;15.38;14.57;;;-0.90;99.90;;;;;;5118362;27;20240;-65
2024/01/10 07:00:51;;;;;;;15.65;14.65;;;-0.90;99.90;;;;;;5115560;27;20281;-63
2024/01/10 07:03:19;;;;;;;14.70;14.02;;;-0.90;99.90;;;;;;5111852;27;20309;-66
2024/01/10 07:05:45;;;;;;;14.75;14.05;;;-1.00;99.90;;;;;;5114449;28;20700;-67
2024/01/10 07:08:12;;;;;;;14.88;14.18;;;-0.90;99.90;;;;;;5112689;27;20700;-64
2024/01/10 07:10:39;;;;;;;15.38;14.57;;;-0.90;99.90;;;;;;5112121;27;20206;-65
2024/01/10 07:13:06;;;;;;;15.07;14.32;;;-1.00;99.90;;;;;;5119259;27;20227;-66
2024/01/10 07:15:33;;;;;;;15.77;14.90;;;-1.10;99.90;;;;;;5114133;27;20567;-65
2024/01/10 07:18:02;;;;;;;15.50;14.70;;;-1.10;99.90;;;;;;5113164;28;20278;-66
2024/01/10 07:20:28;;;;;;;14.98;14.20;;;-1.10;99.90;;;;;;5111410;28;20258;-65
2024/01/10 07:22:55;;;;;;;14.88;14.10;;;-1.20;99.90;;;;;;5112749;28;20240;-67
2024/01/10 07:25:25;;;;;;;14.77;13.98;;;-1.20;99.90;;;;;;5119377;27;20316;-65
2024/01/10 07:27:52;;;;;;;14.52;13.73;;;-1.30;99.90;;;;;;5114240;27;20220;-64
2024/01/10 07:30:18;;;;;;;15.57;14.77;;;-1.20;99.90;;;;;;5113964;27;20212;-65
2024/01/10 07:32:46;;;;;;;14.63;13.85;;;-1.30;99.90;;;;;;5113129;27;20240;-65
2024/01/10 07:35:14;;;;;;;14.05;13.35;;;-1.30;99.90;;;;;;5116130;28;20213;-65
2024/01/10 07:37:43;;;;;;;14.23;13.52;;;-1.40;99.90;;;;;;5118504;27;20692;-65
2024/01/10 07:40:10;;;;;;;14.02;13.32;;;-1.30;99.90;;;;;;5117816;28;20227;-65
2024/01/10 07:42:39;;;;;;;13.43;12.77;;;-1.30;99.90;;;;;;5112097;28;20309;-65
2024/01/10 07:45:07;;;;;;;14.60;13.90;;;-1.40;99.90;;;;;;5114130;28;20206;-64
2024/01/10 07:47:37;;;;;;;14.20;13.50;;;-1.40;99.90;;;;;;5117213;27;20678;-65
2024/01/10 07:50:05;;;;;;;13.90;13.20;;;-1.50;99.90;;;;;;5110048;28;20679;-64
2024/01/10 07:52:33;;;;;;;14.63;13.93;;;-1.50;99.90;;;;;;5117940;28;20232;-64
2024/01/10 07:55:00;;;;;;;15.23;14.50;;;-1.50;99.90;;;;;;5125570;28;20642;-65
2024/01/10 07:57:27;;;;;;;14.52;13.73;;;-1.50;99.90;;;;;;5129414;27;20236;-64
2024/01/10 07:59:53;;;;;;;14.68;13.88;;;-1.50;99.90;;;;;;5121274;27;20240;-65
2024/01/10 08:02:20;;;;;;;13.95;13.25;;;-1.50;99.90;;;;;;5118076;27;20205;-65
2024/01/10 08:04:47;;;;;;;14.68;13.98;;;-1.60;99.90;;;;;;5119693;27;20205;-63
2024/01/10 08:07:14;;;;;;;15.13;14.35;;;-1.60;99.90;;;;;;5120312;27;20210;-65
2024/01/10 08:09:42;;;;;;;14.90;14.18;;;-1.60;99.90;;;;;;5116547;27;20194;-64
2024/01/10 08:12:09;;;;;;;14.35;13.65;;;-1.60;99.90;;;;;;5126002;28;20225;-66
2024/01/10 08:14:37;;;;;;;14.43;13.68;;;-1.70;99.90;;;;;;5133736;27;20201;-66
2024/01/10 08:17:04;;;;;;;14.13;13.43;;;-1.60;99.90;;;;;;5138347;27;20230;-66
2024/01/10 08:19:31;;;;;;;14.82;14.02;;;-1.50;99.90;;;;;;5139414;27;20221;-66
2024/01/10 08:21:58;;;;;;;14.27;13.57;;;-1.50;99.90;;;;;;5133235;27;20213;-65
2024/01/10 08:24:25;;;;;;;14.23;13.52;;;-1.40;99.90;;;;;;5132413;27;20236;-65
2024/01/10 08:26:53;;;;;;;14.77;13.98;;;-1.30;99.90;;;;;;5123337;27;20201;-65
2024/01/10 08:29:20;;;;;;;13.40;12.80;;;-1.30;99.90;;;;;;5125436;27;20210;-65
2024/01/10 08:31:47;;;;;;;13.85;13.05;;;-1.10;99.90;;;;;;5128288;27;20957;-66
2024/01/10 08:34:14;;;;;;;14.38;13.45;;;-1.00;99.90;;;;;;5126206;27;20230;-64
2024/01/10 08:36:41;;;;;;;14.00;13.32;;;-1.00;99.90;;;;;;5131091;27;20202;-65
2024/01/10 08:39:08;;;;;;;13.93;13.23;;;-1.00;99.90;;;;;;5128371;27;20217;-66
2024/01/10 08:41:36;;;;;;;13.52;12.93;;;-0.90;99.90;;;;;;5122494;27;20208;-66
2024/01/10 08:44:05;;;;;;;14.13;13.50;;;-0.80;99.90;;;;;;5115773;27;20719;-65
2024/01/10 08:46:32;;;;;;;14.82;14.13;;;-0.60;99.90;;;;;;5124852;27;20210;-64
2024/01/10 08:48:59;;;;;;;16.55;15.80;;;-0.50;99.90;;;;;;5121112;27;20665;-64
2024/01/10 08:51:27;;;;;;;17.98;17.13;;;-0.20;99.90;;;;;;5117340;28;20205;-64
2024/01/10 08:53:53;;;;;;;18.38;17.58;;;-0.10;99.90;;;;;;5114117;28;20225;-64
2024/01/10 08:56:20;;;;;;;19.33;18.33;;;-0.20;99.90;;;;;;5111626;28;20202;-64
2024/01/10 08:58:47;;;;;;;18.23;17.42;;;-0.30;99.90;;;;;;5114250;27;20271;-64
2024/01/10 09:01:15;;;;;;;17.27;16.48;;;-0.30;99.90;;;;;;5117671;27;20210;-66
2024/01/10 09:03:42;;;;;;;18.02;17.23;;;-0.20;99.90;;;;;;5120338;27;20233;-65
2024/01/10 09:06:09;;;;;;;19.20;18.17;;;-0.20;99.90;;;;;;5119658;27;20198;-66
2024/01/10 09:08:36;;;;;;;17.50;16.73;;;0.00;99.90;;;;;;5110908;27;20195;-65
2024/01/10 09:11:03;;;;;;;17.75;16.83;;;0.10;99.90;;;;;;5119394;27;20304;-65
2024/01/10 09:13:30;;;;;;;18.10;17.30;;;0.20;99.90;;;;;;5118519;27;20218;-65
2024/01/10 09:15:57;;;;;;;17.10;16.30;;;0.30;99.90;;;;;;5115137;27;20210;-65
2024/01/10 09:18:25;;;;;;;16.95;16.15;;;0.30;99.90;;;;;;5119012;27;20239;-64
2024/01/10 09:20:52;;;;;;;15.40;14.70;;;0.30;99.90;;;;;;5114517;28;20213;-66
2024/01/10 09:23:18;;;;;;;16.33;15.63;;;0.40;99.90;;;;;;5115776;27;20587;-65
2024/01/10 09:25:45;;;;;;;15.13;14.43;;;0.60;99.90;;;;;;5118616;27;20219;-66
2024/01/10 09:28:12;;;;;;;14.88;14.18;;;0.70;99.90;;;;;;5114623;27;20584;-66
2024/01/10 09:30:39;;;;;;;15.25;14.55;;;0.70;99.90;;;;;;5119722;27;20209;-64
2024/01/10 09:33:05;;;;;;;14.43;13.82;;;0.80;99.90;;;;;;5119201;27;20730;-64
2024/01/10 09:35:33;;;;;;;14.65;13.95;;;0.90;99.90;;;;;;5120423;27;20205;-64
2024/01/10 09:38:00;;;;;;;15.05;14.35;;;1.10;99.90;;;;;;5116581;27;20688;-65
2024/01/10 09:40:29;;;;;;;13.82;13.23;;;1.10;99.90;;;;;;5119329;27;20202;-65
2024/01/10 09:42:56;;;;;;;14.45;13.75;;;1.10;99.90;;;;;;5115816;27;20225;-64
2024/01/10 09:45:23;;;;;;;15.63;14.82;;;1.30;99.90;;;;;;5113820;27;20208;-63
2024/01/10 09:47:53;;;;;;;15.23;14.43;;;1.40;99.90;;;;;;5116139;27;20353;-64
2024/01/10 09:50:20;;;;;;;14.70;14.05;;;1.40;99.90;;;;;;5112967;27;20566;-65
2024/01/10 09:52:52;;;;;;;15.25;14.55;;;1.50;99.90;;;;;;5117705;27;20221;-65
2024/01/10 09:55:22;;;;;;;15.52;14.82;;;1.60;99.90;;;;;;5112479;28;20202;-65
2024/01/10 09:57:49;;;;;;;15.45;14.75;;;1.50;99.90;;;;;;5112315;28;20213;-66
2024/01/10 10:00:17;;;;;;;14.52;13.90;;;1.40;99.90;;;;;;5115911;27;20378;-66
2024/01/10 10:02:46;;;;;;;15.20;14.48;;;1.40;99.90;;;;;;5108978;28;20617;-64
2024/01/10 10:05:16;;;;;;;15.75;15.00;;;1.30;99.90;;;;;;5117193;27;20240;-65
2024/01/10 10:07:48;;;;;;;15.30;14.60;;;1.40;99.90;;;;;;5116514;27;20218;-66
2024/01/10 10:10:16;;;;;;;14.38;13.68;;;1.60;99.90;;;;;;5110572;28;20210;-65
2024/01/10 10:12:43;;;;;;;15.20;14.50;;;1.70;99.90;;;;;;5123944;27;20225;-65
2024/01/10 10:15:12;;;;;;;14.70;14.10;;;1.60;99.90;;;;;;5110974;28;20238;-65
2024/01/10 10:17:46;;;;;;;16.20;15.43;;;1.70;99.90;;;;;;5113241;28;20213;-65
2024/01/10 10:20:14;;;;;;;15.25;14.55;;;1.70;99.90;;;;;;5115580;27;20642;-64
2024/01/10 10:22:51;;;;;;;16.17;15.38;;;1.70;99.90;;;;;;5119197;27;20645;-65
2024/01/10 10:25:19;;;;;;;15.05;14.35;;;1.70;99.90;;;;;;5114309;27;20194;-65
2024/01/10 10:27:45;;;;;;;15.75;15.05;;;1.80;99.90;;;;;;5115439;27;20213;-65
2024/01/10 10:30:13;;;;;;;14.43;13.80;;;1.80;99.90;;;;;;5113889;27;20672;-65
2024/01/10 10:32:40;;;;;;;14.73;14.02;;;1.70;99.90;;;;;;5114747;27;20733;-64
2024/01/10 10:35:08;;;;;;;14.93;14.30;;;1.70;99.90;;;;;;5115084;27;20194;-66
2024/01/10 10:37:35;;;;;;;15.60;14.85;;;1.60;99.90;;;;;;5114174;27;20235;-63
2024/01/10 10:40:02;;;;;;;17.63;16.73;;;1.60;99.90;;;;;;5109549;28;20233;-65
2024/01/10 10:42:32;;;;;;;18.67;17.63;;;1.60;99.90;;;;;;5109667;28;20244;-65
2024/01/10 10:45:04;;;;;;;16.23;15.43;;;1.50;99.90;;;;;;5112346;27;20232;-65
2024/01/10 10:47:36;;;;;;;16.52;15.73;;;1.60;99.90;;;;;;5106559;28;20262;-66
2024/01/10 10:50:05;;;;;;;15.90;15.10;;;1.60;99.90;;;;;;5118819;27;20197;-64
2024/01/10 10:52:32;;;;;;;14.82;14.13;;;1.70;99.90;;;;;;5112456;27;20217;-64
2024/01/10 10:55:00;;;;;;;16.60;15.80;;;1.70;99.90;;;;;;5112495;27;20230;-66
2024/01/10 10:57:28;;;;;;;16.05;15.25;;;1.90;99.90;;;;;;5117511;27;20230;-66
2024/01/10 10:59:58;;;;;;;15.57;14.77;;;1.90;99.90;;;;;;5121896;27;20221;-65
2024/01/10 11:02:25;;;;;;;15.68;14.98;;;2.00;99.90;;;;;;5114140;27;20749;-66
2024/01/10 11:04:54;;;;;;;14.75;14.05;;;2.10;99.90;;;;;;5111097;28;20205;-66
2024/01/10 11:07:21;;;;;;;16.23;15.48;;;2.00;99.90;;;;;;5114905;27;20221;-64
2024/01/10 11:09:50;;;;;;;16.20;15.40;;;2.00;99.90;;;;;;5113483;28;20197;-65
2024/01/10 11:12:28;;;;;;;14.93;14.23;;;1.90;99.90;;;;;;5109162;28;20207;-65
2024/01/10 11:15:14;;;;;;;15.82;15.07;;;1.90;99.90;;;;;;5107408;28;20190;-65
2024/01/10 11:18:06;;;;;;;15.38;14.68;;;1.90;99.90;;;;;;5119018;27;20213;-65
2024/01/10 11:20:48;;;;;;;15.35;14.65;;;2.00;99.90;;;;;;5107408;28;20653;-64
2024/01/10 11:23:38;;;;;;;15.02;14.38;;;2.10;99.90;;;;;;5119362;27;20218;-65
2024/01/10 11:26:05;;;;;;;14.75;14.15;;;2.20;99.90;;;;;;5115098;28;20219;-65
2024/01/10 11:28:33;;;;;;;14.73;14.02;;;2.10;99.90;;;;;;5125193;27;20205;-65
2024/01/10 11:31:01;;;;;;;15.57;14.88;;;2.10;99.90;;;;;;5121454;27;20225;-65
2024/01/10 11:33:32;;;;;;;16.00;15.25;;;2.20;99.90;;;;;;5110011;28;20414;-66
2024/01/10 11:36:10;;;;;;;15.27;14.57;;;2.10;99.90;;;;;;5112589;28;20201;-66
2024/01/10 11:38:44;;;;;;;15.23;14.50;;;2.10;99.90;;;;;;5112100;28;20233;-64
2024/01/10 11:41:21;;;;;;;16.07;15.37;;;2.10;99.90;;;;;;5117166;28;20739;-65
2024/01/10 11:44:07;;;;;;;15.38;14.68;;;1.90;99.90;;;;;;5118246;28;20289;-64
2024/01/10 11:46:35;;;;;;;16.17;15.25;;;2.00;99.90;;;;;;5117238;28;20288;-64
2024/01/10 11:49:02;;;;;;;16.37;15.57;;;1.90;99.90;;;;;;5120068;28;20240;-64
2024/01/10 11:51:30;;;;;;;15.25;14.48;;;1.50;99.90;;;;;;5110843;28;20206;-64
2024/01/10 11:53:57;;;;;;;15.68;14.98;;;1.40;99.90;;;;;;5111510;28;20229;-65
2024/01/10 11:56:24;;;;;;;14.18;13.57;;;1.50;99.90;;;;;;5115515;28;20415;-65
2024/01/10 11:58:55;;;;;;;15.27;14.57;;;1.50;99.90;;;;;;5114277;28;20588;-63
2024/01/10 12:01:23;;;;;;;15.37;14.67;;;1.60;99.90;;;;;;5121541;28;20198;-65
2024/01/10 12:03:53;;;;;;;14.75;14.05;;;1.70;99.90;;;;;;5111809;28;20217;-64
2024/01/10 12:06:22;;;;;;;16.90;16.10;;;1.70;99.90;;;;;;5115214;28;20401;-65
2024/01/10 12:08:49;;;;;;;14.82;14.13;;;1.50;99.90;;;;;;5120889;28;20229;-65
2024/01/10 12:11:16;;;;;;;14.85;14.25;;;1.40;99.90;;;;;;5113182;28;20205;-64
2024/01/10 12:13:43;;;;;;;15.55;14.75;;;1.40;99.90;;;;;;5113037;27;20229;-65
2024/01/10 12:16:10;;;;;;;16.73;15.80;;;1.20;99.90;;;;;;5115904;28;20201;-65
2024/01/10 12:18:37;;;;;;;15.82;15.02;;;1.30;99.90;;;;;;5119938;27;20217;-64
2024/01/10 12:21:05;;;;;;;14.95;14.25;;;1.30;99.90;;;;;;5117583;28;20205;-65
2024/01/10 12:23:34;;;;;;;15.25;14.55;;;1.40;99.90;;;;;;5116191;27;20226;-64
2024/01/10 12:26:04;;;;;;;14.83;14.13;;;1.40;99.90;;;;;;5119995;28;20206;-64
2024/01/10 12:28:31;;;;;;;15.27;14.57;;;1.50;99.90;;;;;;5114993;28;20584;-64
2024/01/10 12:30:58;;;;;;;15.13;14.43;;;1.60;99.90;;;;;;5111604;28;20194;-64
2024/01/10 12:33:25;;;;;;;15.75;15.05;;;1.50;99.90;;;;;;5114529;28;20222;-65